createdAt,value
2022-11-10T00:03:28.304Z,10.79
2022-11-10T00:08:31.058Z,10.84
2022-11-10T00:13:35.215Z,10.94
2022-11-10T00:18:38.511Z,10.89
2022-11-10T00:23:41.211Z,10.93
2022-11-10T00:28:43.887Z,10.99
2022-11-10T00:33:47.338Z,11.02
2022-11-10T00:38:50.820Z,11.07
2022-11-10T00:43:52.891Z,11.04
2022-11-10T00:48:56.435Z,11.04
2022-11-10T00:53:58.499Z,11.00
2022-11-10T00:59:00.535Z,10.91
2022-11-10T01:04:04.555Z,10.87
2022-11-10T01:09:06.523Z,10.77
2022-11-10T01:14:08.254Z,10.82
2022-11-10T01:19:11.266Z,10.82
2022-11-10T01:24:13.291Z,10.89
2022-11-10T01:29:15.047Z,10.89
2022-11-10T01:34:18.098Z,10.87
2022-11-10T01:39:20.347Z,10.80
2022-11-10T01:44:24.730Z,10.75
2022-11-10T01:49:29.235Z,10.80
2022-11-10T01:54:34.628Z,10.91
2022-11-10T01:59:40.443Z,10.94
2022-11-10T02:04:44.219Z,11.17
2022-11-10T02:09:47.310Z,11.38
2022-11-10T02:14:49.419Z,11.53
2022-11-10T02:19:52.552Z,11.63
2022-11-10T02:24:56.674Z,11.62
2022-11-10T02:29:58.945Z,11.74
2022-11-10T02:35:00.630Z,11.85
2022-11-10T02:40:04.849Z,11.80
2022-11-10T02:45:07.484Z,11.77
2022-11-10T02:50:10.316Z,11.81
2022-11-10T02:55:13.707Z,11.83
2022-11-10T03:00:15.711Z,11.88
2022-11-10T03:05:17.987Z,11.82
2022-11-10T03:10:21.862Z,11.78
2022-11-10T03:15:24.500Z,11.68
2022-11-10T03:20:26.616Z,11.64
2022-11-10T03:25:30.404Z,11.50
2022-11-10T03:30:32.461Z,11.16
2022-11-10T03:35:34.252Z,11.03
2022-11-10T03:40:50.823Z,11.14
2022-11-10T03:46:00.737Z,10.87
2022-11-10T03:51:04.107Z,10.90
2022-11-10T03:56:08.241Z,10.82
2022-11-10T04:01:10.792Z,10.83
2022-11-10T04:06:12.658Z,10.93
2022-11-10T04:11:16.354Z,11.01
2022-11-10T04:16:18.512Z,10.98
2022-11-10T04:21:20.168Z,10.88
2022-11-10T04:26:23.610Z,10.73
2022-11-10T04:31:27.208Z,10.67
2022-11-10T04:36:31.037Z,10.48
2022-11-10T04:41:35.157Z,10.34
2022-11-10T04:46:38.850Z,10.23
2022-11-10T04:51:40.699Z,10.08
2022-11-10T04:56:44.428Z,10.04
2022-11-10T05:01:46.535Z,9.85
2022-11-10T05:06:48.274Z,9.68
2022-11-10T05:11:51.828Z,9.59
2022-11-10T05:16:54.199Z,9.56
2022-11-10T05:21:56.569Z,9.42
2022-11-10T05:27:00.394Z,9.33
2022-11-10T05:32:02.671Z,9.23
2022-11-10T05:37:04.837Z,9.18
2022-11-10T05:42:08.473Z,9.13
2022-11-10T05:47:10.156Z,8.95
2022-11-10T05:52:12.214Z,8.90
2022-11-10T05:57:15.930Z,8.68
2022-11-10T06:02:18.131Z,8.59
2022-11-10T06:07:20.359Z,8.42
2022-11-10T06:12:23.711Z,8.35
2022-11-10T06:17:26.150Z,8.23
2022-11-10T06:22:28.217Z,8.12
2022-11-10T06:27:32.380Z,8.01
2022-11-10T06:32:35.130Z,7.98
2022-11-10T06:37:37.287Z,7.96
2022-11-10T06:42:41.033Z,7.87
2022-11-10T06:47:43.258Z,7.95
2022-11-10T06:52:53.853Z,8.03
2022-11-10T06:57:57.812Z,8.15
2022-11-10T07:03:04.808Z,8.34
2022-11-10T07:08:08.885Z,8.77
2022-11-10T07:13:12.500Z,9.28
2022-11-10T07:18:14.952Z,9.39
2022-11-10T07:23:17.034Z,9.61
2022-11-10T07:28:23.454Z,9.70
2022-11-10T07:33:29.461Z,9.77
2022-11-10T07:38:31.165Z,9.82
2022-11-10T07:43:34.657Z,9.96
2022-11-10T07:48:36.351Z,10.06
2022-11-10T07:53:38.033Z,10.17
2022-11-10T07:58:41.234Z,10.36
2022-11-10T08:03:43.783Z,10.67
2022-11-10T08:08:46.172Z,10.97
2022-11-10T08:13:49.986Z,11.12
2022-11-10T08:18:51.992Z,11.28
2022-11-10T08:23:54.134Z,11.25
2022-11-10T08:28:57.744Z,11.59
2022-11-10T08:34:00.354Z,12.02
2022-11-10T08:39:02.817Z,12.34
2022-11-10T08:44:10.701Z,12.40
2022-11-10T08:49:12.802Z,12.42
2022-11-10T08:54:14.844Z,12.61
2022-11-10T08:59:18.447Z,12.60
2022-11-10T09:04:20.119Z,12.50
2022-11-10T09:09:21.912Z,12.62
2022-11-10T09:14:25.341Z,13.00
2022-11-10T09:19:27.516Z,13.09
2022-11-10T09:24:31.560Z,13.08
2022-11-10T09:29:35.492Z,13.37
2022-11-10T09:34:37.596Z,13.78
2022-11-10T09:39:39.812Z,13.79
2022-11-10T09:44:49.952Z,13.77
2022-11-10T09:49:57.170Z,13.88
2022-11-10T09:55:05.425Z,15.06
2022-11-10T10:00:13.490Z,16.95
2022-11-10T10:05:36.455Z,20.76
2022-11-10T10:10:43.276Z,20.69
2022-11-10T10:16:08.965Z,21.31
2022-11-10T10:21:26.737Z,23.61
2022-11-10T10:26:32.258Z,23.61
2022-11-10T10:31:39.139Z,23.03
2022-11-10T10:36:41.688Z,25.11
2022-11-10T10:41:46.227Z,20.54
2022-11-10T10:46:51.551Z,21.79
2022-11-10T10:52:03.002Z,23.58
2022-11-10T10:57:19.407Z,24.58
2022-11-10T11:02:26.720Z,24.39
2022-11-10T11:07:28.829Z,21.23
2022-11-10T11:12:31.222Z,22.31
2022-11-10T11:17:34.342Z,19.96
2022-11-10T11:22:47.544Z,16.98
2022-11-10T11:27:59.158Z,16.54
2022-11-10T11:33:17.914Z,16.21
2022-11-10T11:38:32.061Z,16.79
2022-11-10T11:43:59.287Z,16.64
2022-11-10T11:49:23.526Z,16.12
2022-11-10T11:54:37.793Z,16.08
2022-11-10T11:59:56.778Z,16.21
2022-11-10T12:05:15.737Z,16.54
2022-11-10T12:10:31.187Z,15.85
2022-11-10T12:15:42.257Z,15.77
2022-11-10T12:20:57.771Z,16.16
2022-11-10T12:26:12.076Z,16.25
2022-11-10T12:31:20.542Z,16.06
2022-11-10T12:36:27.501Z,15.38
2022-11-10T12:41:36.620Z,15.62
2022-11-10T12:46:40.412Z,15.46
2022-11-10T12:51:50.503Z,14.99
2022-11-10T12:56:55.092Z,14.88
2022-11-10T13:02:01.740Z,14.82
2022-11-10T13:07:12.898Z,14.87
2022-11-10T13:12:18.876Z,15.34
2022-11-10T13:17:55.362Z,15.34
2022-11-10T13:22:58.824Z,15.65
2022-11-10T13:28:00.984Z,15.84
2022-11-10T13:33:32.404Z,15.31
2022-11-10T13:38:38.236Z,14.91
2022-11-10T13:43:48.893Z,14.65
2022-11-10T13:49:23.460Z,14.62
2022-11-10T13:55:02.804Z,14.33
2022-11-10T14:00:24.644Z,14.07
2022-11-10T14:06:02.699Z,13.88
2022-11-10T14:11:13.363Z,13.89
2022-11-10T14:16:21.225Z,13.93
2022-11-10T14:21:29.127Z,13.96
2022-11-10T14:26:37.895Z,13.84
2022-11-10T14:31:43.998Z,13.81
2022-11-10T14:36:56.256Z,13.77
2022-11-10T14:42:03.760Z,13.73
2022-11-10T14:47:22.724Z,13.67
2022-11-10T14:52:24.850Z,13.59
2022-11-10T14:57:28.012Z,13.46
2022-11-10T15:02:30.133Z,13.26
2022-11-10T15:07:32.481Z,13.13
2022-11-10T15:12:40.865Z,12.96
2022-11-10T15:17:46.089Z,12.83
2022-11-10T15:22:49.866Z,12.60
2022-11-10T15:28:00.690Z,12.35
2022-11-10T15:33:09.764Z,12.13
2022-11-10T15:38:25.936Z,11.88
2022-11-10T15:43:30.048Z,11.71
2022-11-10T15:48:38.082Z,11.47
2022-11-10T15:53:42.620Z,11.42
2022-11-10T15:58:49.113Z,11.26
2022-11-10T16:03:50.815Z,11.16
2022-11-10T16:08:52.635Z,11.12
2022-11-10T16:13:56.472Z,11.03
2022-11-10T16:18:58.215Z,11.00
2022-11-10T16:23:59.937Z,10.92
2022-11-10T16:29:03.749Z,10.89
2022-11-10T16:34:05.911Z,10.79
2022-11-10T16:39:12.219Z,10.65
2022-11-10T16:44:16.384Z,10.54
2022-11-10T16:49:26.428Z,10.36
2022-11-10T16:54:28.592Z,10.22
2022-11-10T16:59:31.785Z,9.99
2022-11-10T17:04:34.804Z,9.94
2022-11-10T17:09:36.496Z,9.81
2022-11-10T17:14:39.954Z,9.60
2022-11-10T17:19:42.271Z,9.52
2022-11-10T17:24:46.141Z,9.74
2022-11-10T17:29:49.311Z,10.04
2022-11-10T17:34:51.068Z,10.25
2022-11-10T17:39:52.803Z,10.35
2022-11-10T17:44:56.183Z,10.38
2022-11-10T17:49:58.389Z,10.50
2022-11-10T17:55:00.066Z,10.55
2022-11-10T18:00:04.323Z,10.60
2022-11-10T18:05:06.846Z,10.67
2022-11-10T18:10:14.122Z,10.79
2022-11-10T18:15:18.169Z,10.87
2022-11-10T18:20:20.248Z,10.90
2022-11-10T18:25:22.514Z,10.96
2022-11-10T18:30:25.868Z,11.05
2022-11-10T18:35:28.157Z,11.20
2022-11-10T18:40:29.911Z,11.40
2022-11-10T18:45:36.093Z,11.71
2022-11-10T18:50:38.508Z,11.82
2022-11-10T18:55:45.241Z,11.96
2022-11-10T19:00:48.971Z,11.86
2022-11-10T19:05:54.371Z,11.91
2022-11-10T19:11:00.142Z,11.93
2022-11-10T19:16:05.537Z,11.84
2022-11-10T19:21:08.976Z,11.89
2022-11-10T19:26:12.950Z,11.86
2022-11-10T19:31:19.501Z,11.91
2022-11-10T19:36:24.074Z,11.78
2022-11-10T19:41:27.748Z,11.76
2022-11-10T19:46:31.779Z,11.81
2022-11-10T19:51:38.707Z,11.70
2022-11-10T19:57:11.570Z,11.69
2022-11-10T20:02:33.155Z,11.68
2022-11-10T20:07:56.537Z,11.63
2022-11-10T20:13:22.682Z,11.66
2022-11-10T20:18:40.533Z,11.59
2022-11-10T20:24:40.274Z,11.55
2022-11-10T20:29:49.095Z,11.46
2022-11-10T20:35:18.673Z,11.33
2022-11-10T20:40:54.155Z,11.06
2022-11-10T20:46:07.030Z,10.81
2022-11-10T20:51:33.446Z,10.66
2022-11-10T20:56:45.808Z,10.58
2022-11-10T21:02:03.929Z,10.43
2022-11-10T21:07:18.314Z,10.28
2022-11-10T21:12:37.407Z,10.16
2022-11-10T21:17:57.646Z,10.04
2022-11-10T21:28:46.511Z,9.87
2022-11-10T21:34:17.222Z,9.82
2022-11-10T21:39:40.828Z,9.78
2022-11-10T21:44:54.076Z,9.64
2022-11-10T21:50:23.530Z,9.64
2022-11-10T21:56:11.577Z,9.52
2022-11-10T22:01:33.914Z,9.46
2022-11-10T22:07:05.995Z,9.31
2022-11-10T22:12:19.877Z,9.24
2022-11-10T22:17:27.017Z,9.16
2022-11-10T22:22:37.749Z,9.08
2022-11-10T22:28:07.680Z,9.00
2022-11-10T22:33:23.677Z,9.03
2022-11-10T22:38:47.759Z,9.02
2022-11-10T22:44:24.847Z,8.98
2022-11-10T22:49:44.735Z,8.90
2022-11-10T22:55:14.962Z,8.77
2022-11-10T23:00:28.691Z,8.65
2022-11-10T23:05:37.004Z,8.61
2022-11-10T23:10:49.961Z,8.55
2022-11-10T23:16:22.170Z,8.42
2022-11-10T23:21:40.750Z,8.33
2022-11-10T23:26:46.081Z,8.23
2022-11-10T23:31:58.749Z,8.13
2022-11-10T23:37:12.321Z,8.09
2022-11-10T23:42:23.199Z,7.99
2022-11-10T23:47:34.020Z,7.97
2022-11-10T23:52:42.309Z,7.96
2022-11-10T23:57:46.036Z,8.00
